sensor_id;sensor_type;location;lat;lon;timestamp;P1;durP1;ratioP1;P2;durP2;ratioP2
78931;SDS011;68331;53.362;55.932;2023-04-25T00:01:20;8.82;;;6.13;;
78931;SDS011;68331;53.362;55.932;2023-04-25T00:03:49;9.38;;;6.07;;
78931;SDS011;68331;53.362;55.932;2023-04-25T00:06:16;7.75;;;6.55;;
78931;SDS011;68331;53.362;55.932;2023-04-25T00:08:43;9.52;;;6.00;;
78931;SDS011;68331;53.362;55.932;2023-04-25T00:11:09;10.50;;;7.22;;
78931;SDS011;68331;53.362;55.932;2023-04-25T00:13:35;10.77;;;7.03;;
78931;SDS011;68331;53.362;55.932;2023-04-25T00:16:01;43.13;;;9.23;;
78931;SDS011;68331;53.362;55.932;2023-04-25T00:18:28;12.68;;;7.53;;
78931;SDS011;68331;53.362;55.932;2023-04-25T00:20:54;11.02;;;7.07;;
78931;SDS011;68331;53.362;55.932;2023-04-25T00:23:21;12.90;;;7.60;;
78931;SDS011;68331;53.362;55.932;2023-04-25T00:25:47;9.65;;;6.63;;
78931;SDS011;68331;53.362;55.932;2023-04-25T00:28:15;9.50;;;7.15;;
78931;SDS011;68331;53.362;55.932;2023-04-25T00:30:41;11.18;;;7.40;;
78931;SDS011;68331;53.362;55.932;2023-04-25T00:33:08;9.55;;;6.70;;
78931;SDS011;68331;53.362;55.932;2023-04-25T00:35:35;10.77;;;6.32;;
78931;SDS011;68331;53.362;55.932;2023-04-25T00:38:02;11.93;;;6.68;;
78931;SDS011;68331;53.362;55.932;2023-04-25T00:40:28;8.27;;;7.22;;
78931;SDS011;68331;53.362;55.932;2023-04-25T00:42:54;8.73;;;7.60;;
78931;SDS011;68331;53.362;55.932;2023-04-25T00:45:20;10.60;;;6.45;;
78931;SDS011;68331;53.362;55.932;2023-04-25T00:47:46;10.48;;;7.00;;
78931;SDS011;68331;53.362;55.932;2023-04-25T00:50:15;12.40;;;7.30;;
78931;SDS011;68331;53.362;55.932;2023-04-25T00:52:43;12.65;;;7.43;;
78931;SDS011;68331;53.362;55.932;2023-04-25T00:55:10;12.13;;;7.97;;
78931;SDS011;68331;53.362;55.932;2023-04-25T01:00:04;16.50;;;7.20;;
78931;SDS011;68331;53.362;55.932;2023-04-25T01:02:33;11.98;;;7.72;;
78931;SDS011;68331;53.362;55.932;2023-04-25T01:05:01;12.05;;;7.38;;
78931;SDS011;68331;53.362;55.932;2023-04-25T01:07:32;16.33;;;7.78;;
78931;SDS011;68331;53.362;55.932;2023-04-25T01:09:58;13.30;;;7.63;;
78931;SDS011;68331;53.362;55.932;2023-04-25T01:12:24;12.43;;;7.35;;
78931;SDS011;68331;53.362;55.932;2023-04-25T01:14:50;12.48;;;7.50;;
78931;SDS011;68331;53.362;55.932;2023-04-25T01:17:17;15.50;;;8.63;;
78931;SDS011;68331;53.362;55.932;2023-04-25T01:19:43;15.80;;;7.15;;
78931;SDS011;68331;53.362;55.932;2023-04-25T01:22:11;15.07;;;8.15;;
78931;SDS011;68331;53.362;55.932;2023-04-25T01:24:37;12.40;;;7.70;;
78931;SDS011;68331;53.362;55.932;2023-04-25T01:27:04;13.88;;;7.57;;
78931;SDS011;68331;53.362;55.932;2023-04-25T01:29:32;13.80;;;7.93;;
78931;SDS011;68331;53.362;55.932;2023-04-25T01:31:59;11.23;;;8.05;;
78931;SDS011;68331;53.362;55.932;2023-04-25T01:34:25;20.48;;;8.57;;
78931;SDS011;68331;53.362;55.932;2023-04-25T01:36:51;15.57;;;7.97;;
78931;SDS011;68331;53.362;55.932;2023-04-25T01:39:18;14.25;;;8.02;;
78931;SDS011;68331;53.362;55.932;2023-04-25T01:41:45;13.85;;;8.82;;
78931;SDS011;68331;53.362;55.932;2023-04-25T01:44:12;17.25;;;8.35;;
78931;SDS011;68331;53.362;55.932;2023-04-25T01:46:39;13.60;;;8.23;;
78931;SDS011;68331;53.362;55.932;2023-04-25T01:49:05;14.52;;;9.48;;
78931;SDS011;68331;53.362;55.932;2023-04-25T01:51:31;16.40;;;8.98;;
78931;SDS011;68331;53.362;55.932;2023-04-25T01:53:58;14.52;;;9.18;;
78931;SDS011;68331;53.362;55.932;2023-04-25T01:56:24;13.00;;;9.18;;
78931;SDS011;68331;53.362;55.932;2023-04-25T01:58:51;15.48;;;8.75;;
78931;SDS011;68331;53.362;55.932;2023-04-25T02:01:33;20.15;;;8.82;;
78931;SDS011;68331;53.362;55.932;2023-04-25T02:04:13;14.98;;;8.90;;
78931;SDS011;68331;53.362;55.932;2023-04-25T02:06:40;19.48;;;8.80;;
78931;SDS011;68331;53.362;55.932;2023-04-25T02:09:06;12.45;;;8.50;;
78931;SDS011;68331;53.362;55.932;2023-04-25T02:11:32;16.63;;;8.10;;
78931;SDS011;68331;53.362;55.932;2023-04-25T02:14:21;14.77;;;8.13;;
78931;SDS011;68331;53.362;55.932;2023-04-25T02:16:55;15.38;;;8.00;;
78931;SDS011;68331;53.362;55.932;2023-04-25T02:19:22;15.85;;;8.40;;
78931;SDS011;68331;53.362;55.932;2023-04-25T02:21:48;22.75;;;12.27;;
78931;SDS011;68331;53.362;55.932;2023-04-25T02:24:14;13.35;;;7.90;;
78931;SDS011;68331;53.362;55.932;2023-04-25T02:26:40;32.55;;;9.75;;
78931;SDS011;68331;53.362;55.932;2023-04-25T02:31:34;13.75;;;8.32;;
78931;SDS011;68331;53.362;55.932;2023-04-25T02:34:00;16.23;;;8.45;;
78931;SDS011;68331;53.362;55.932;2023-04-25T02:36:27;21.83;;;9.23;;
78931;SDS011;68331;53.362;55.932;2023-04-25T02:38:55;13.90;;;8.10;;
78931;SDS011;68331;53.362;55.932;2023-04-25T02:41:21;11.10;;;7.75;;
78931;SDS011;68331;53.362;55.932;2023-04-25T02:43:47;12.00;;;7.82;;
78931;SDS011;68331;53.362;55.932;2023-04-25T02:46:13;13.85;;;8.38;;
78931;SDS011;68331;53.362;55.932;2023-04-25T02:48:40;11.43;;;7.65;;
78931;SDS011;68331;53.362;55.932;2023-04-25T02:51:05;16.75;;;7.43;;
78931;SDS011;68331;53.362;55.932;2023-04-25T02:53:31;12.55;;;8.10;;
78931;SDS011;68331;53.362;55.932;2023-04-25T02:55:57;13.70;;;7.55;;
78931;SDS011;68331;53.362;55.932;2023-04-25T02:58:24;12.85;;;7.32;;
78931;SDS011;68331;53.362;55.932;2023-04-25T03:00:52;12.07;;;7.88;;
78931;SDS011;68331;53.362;55.932;2023-04-25T03:03:18;12.38;;;7.22;;
78931;SDS011;68331;53.362;55.932;2023-04-25T03:05:48;14.15;;;7.38;;
78931;SDS011;68331;53.362;55.932;2023-04-25T03:08:18;14.32;;;8.23;;
78931;SDS011;68331;53.362;55.932;2023-04-25T03:10:45;10.30;;;6.75;;
78931;SDS011;68331;53.362;55.932;2023-04-25T03:13:14;12.70;;;7.43;;
78931;SDS011;68331;53.362;55.932;2023-04-25T03:15:41;14.10;;;7.07;;
78931;SDS011;68331;53.362;55.932;2023-04-25T03:18:09;14.13;;;7.32;;
78931;SDS011;68331;53.362;55.932;2023-04-25T03:20:35;22.55;;;8.13;;
78931;SDS011;68331;53.362;55.932;2023-04-25T03:25:29;16.52;;;7.47;;
78931;SDS011;68331;53.362;55.932;2023-04-25T03:27:55;9.27;;;6.65;;
78931;SDS011;68331;53.362;55.932;2023-04-25T03:30:21;10.00;;;6.50;;
78931;SDS011;68331;53.362;55.932;2023-04-25T03:32:48;12.95;;;7.05;;
78931;SDS011;68331;53.362;55.932;2023-04-25T03:35:16;14.88;;;7.45;;
78931;SDS011;68331;53.362;55.932;2023-04-25T03:37:42;11.55;;;6.63;;
78931;SDS011;68331;53.362;55.932;2023-04-25T03:40:14;14.20;;;6.70;;
78931;SDS011;68331;53.362;55.932;2023-04-25T03:43:05;13.07;;;7.60;;
78931;SDS011;68331;53.362;55.932;2023-04-25T03:47:58;8.82;;;5.85;;
78931;SDS011;68331;53.362;55.932;2023-04-25T03:50:26;9.07;;;5.53;;
78931;SDS011;68331;53.362;55.932;2023-04-25T03:52:52;10.45;;;5.65;;
78931;SDS011;68331;53.362;55.932;2023-04-25T03:55:18;7.60;;;5.60;;
78931;SDS011;68331;53.362;55.932;2023-04-25T03:57:45;8.90;;;5.38;;
78931;SDS011;68331;53.362;55.932;2023-04-25T04:00:11;11.80;;;5.90;;
78931;SDS011;68331;53.362;55.932;2023-04-25T04:02:41;8.25;;;5.45;;
78931;SDS011;68331;53.362;55.932;2023-04-25T04:05:09;11.63;;;6.22;;
78931;SDS011;68331;53.362;55.932;2023-04-25T04:07:38;9.15;;;5.80;;
78931;SDS011;68331;53.362;55.932;2023-04-25T04:10:11;6.93;;;4.88;;
78931;SDS011;68331;53.362;55.932;2023-04-25T04:12:39;11.50;;;5.03;;
78931;SDS011;68331;53.362;55.932;2023-04-25T04:15:05;8.05;;;4.93;;
78931;SDS011;68331;53.362;55.932;2023-04-25T04:17:33;8.85;;;4.47;;
78931;SDS011;68331;53.362;55.932;2023-04-25T04:19:59;6.38;;;4.43;;
78931;SDS011;68331;53.362;55.932;2023-04-25T04:22:31;9.32;;;4.88;;
78931;SDS011;68331;53.362;55.932;2023-04-25T04:25:02;9.60;;;4.30;;
78931;SDS011;68331;53.362;55.932;2023-04-25T04:27:48;8.63;;;4.68;;
78931;SDS011;68331;53.362;55.932;2023-04-25T04:30:32;6.97;;;4.40;;
78931;SDS011;68331;53.362;55.932;2023-04-25T04:33:04;11.93;;;5.00;;
78931;SDS011;68331;53.362;55.932;2023-04-25T04:35:30;10.70;;;4.68;;
78931;SDS011;68331;53.362;55.932;2023-04-25T04:37:58;7.07;;;4.30;;
78931;SDS011;68331;53.362;55.932;2023-04-25T04:40:28;16.92;;;4.88;;
78931;SDS011;68331;53.362;55.932;2023-04-25T04:43:22;11.00;;;4.13;;
78931;SDS011;68331;53.362;55.932;2023-04-25T04:46:01;6.97;;;3.58;;
78931;SDS011;68331;53.362;55.932;2023-04-25T04:48:40;7.68;;;3.65;;
78931;SDS011;68331;53.362;55.932;2023-04-25T04:51:21;8.57;;;4.32;;
78931;SDS011;68331;53.362;55.932;2023-04-25T04:53:59;8.63;;;4.30;;
78931;SDS011;68331;53.362;55.932;2023-04-25T04:56:51;7.18;;;3.75;;
78931;SDS011;68331;53.362;55.932;2023-04-25T04:59:47;8.68;;;3.50;;
78931;SDS011;68331;53.362;55.932;2023-04-25T05:02:33;12.85;;;3.72;;
78931;SDS011;68331;53.362;55.932;2023-04-25T05:05:18;6.47;;;4.13;;
78931;SDS011;68331;53.362;55.932;2023-04-25T05:08:11;8.75;;;3.70;;
78931;SDS011;68331;53.362;55.932;2023-04-25T05:11:07;9.15;;;5.13;;
78931;SDS011;68331;53.362;55.932;2023-04-25T05:13:41;6.03;;;4.10;;
78931;SDS011;68331;53.362;55.932;2023-04-25T05:16:38;8.45;;;4.00;;
78931;SDS011;68331;53.362;55.932;2023-04-25T05:19:40;29.15;;;6.03;;
78931;SDS011;68331;53.362;55.932;2023-04-25T05:22:16;7.70;;;3.40;;
78931;SDS011;68331;53.362;55.932;2023-04-25T05:25:03;5.53;;;3.53;;
78931;SDS011;68331;53.362;55.932;2023-04-25T05:27:50;5.25;;;3.47;;
78931;SDS011;68331;53.362;55.932;2023-04-25T05:30:41;9.82;;;3.45;;
78931;SDS011;68331;53.362;55.932;2023-04-25T05:33:20;3.50;;;3.10;;
78931;SDS011;68331;53.362;55.932;2023-04-25T05:35:46;5.45;;;2.70;;
78931;SDS011;68331;53.362;55.932;2023-04-25T05:38:14;6.93;;;3.20;;
78931;SDS011;68331;53.362;55.932;2023-04-25T05:41:15;6.80;;;3.20;;
78931;SDS011;68331;53.362;55.932;2023-04-25T05:43:56;3.60;;;2.70;;
78931;SDS011;68331;53.362;55.932;2023-04-25T05:46:43;12.32;;;3.00;;
78931;SDS011;68331;53.362;55.932;2023-04-25T05:49:27;4.15;;;2.63;;
78931;SDS011;68331;53.362;55.932;2023-04-25T05:52:12;8.15;;;3.03;;
78931;SDS011;68331;53.362;55.932;2023-04-25T05:54:55;6.45;;;3.50;;
78931;SDS011;68331;53.362;55.932;2023-04-25T05:57:22;5.60;;;3.05;;
78931;SDS011;68331;53.362;55.932;2023-04-25T05:59:49;4.53;;;2.72;;
78931;SDS011;68331;53.362;55.932;2023-04-25T06:02:16;10.40;;;3.13;;
78931;SDS011;68331;53.362;55.932;2023-04-25T06:04:43;6.50;;;2.80;;
78931;SDS011;68331;53.362;55.932;2023-04-25T06:07:09;8.80;;;2.70;;
78931;SDS011;68331;53.362;55.932;2023-04-25T06:09:35;6.22;;;2.60;;
78931;SDS011;68331;53.362;55.932;2023-04-25T06:12:02;4.20;;;2.65;;
78931;SDS011;68331;53.362;55.932;2023-04-25T06:14:28;6.90;;;2.67;;
78931;SDS011;68331;53.362;55.932;2023-04-25T06:16:55;4.28;;;2.80;;
78931;SDS011;68331;53.362;55.932;2023-04-25T06:19:21;5.65;;;2.95;;
78931;SDS011;68331;53.362;55.932;2023-04-25T06:21:47;6.45;;;2.85;;
78931;SDS011;68331;53.362;55.932;2023-04-25T06:24:13;9.35;;;2.92;;
78931;SDS011;68331;53.362;55.932;2023-04-25T06:26:40;3.38;;;2.45;;
78931;SDS011;68331;53.362;55.932;2023-04-25T06:31:32;4.10;;;2.05;;
78931;SDS011;68331;53.362;55.932;2023-04-25T06:33:59;4.15;;;2.30;;
78931;SDS011;68331;53.362;55.932;2023-04-25T06:36:27;3.55;;;2.40;;
78931;SDS011;68331;53.362;55.932;2023-04-25T06:38:59;3.05;;;2.22;;
78931;SDS011;68331;53.362;55.932;2023-04-25T06:41:25;12.10;;;2.90;;
78931;SDS011;68331;53.362;55.932;2023-04-25T06:43:56;6.20;;;2.80;;
78931;SDS011;68331;53.362;55.932;2023-04-25T06:46:32;5.63;;;2.53;;
78931;SDS011;68331;53.362;55.932;2023-04-25T06:48:58;4.25;;;2.90;;
78931;SDS011;68331;53.362;55.932;2023-04-25T06:51:25;6.03;;;2.63;;
78931;SDS011;68331;53.362;55.932;2023-04-25T06:53:54;7.82;;;3.05;;
78931;SDS011;68331;53.362;55.932;2023-04-25T06:56:38;5.82;;;2.53;;
78931;SDS011;68331;53.362;55.932;2023-04-25T06:59:09;6.18;;;2.65;;
78931;SDS011;68331;53.362;55.932;2023-04-25T07:01:37;5.85;;;3.03;;
78931;SDS011;68331;53.362;55.932;2023-04-25T07:04:08;5.97;;;2.95;;
78931;SDS011;68331;53.362;55.932;2023-04-25T07:06:39;3.38;;;2.33;;
78931;SDS011;68331;53.362;55.932;2023-04-25T07:09:09;5.82;;;2.97;;
78931;SDS011;68331;53.362;55.932;2023-04-25T07:11:39;5.75;;;3.03;;
78931;SDS011;68331;53.362;55.932;2023-04-25T07:14:06;4.97;;;2.88;;
78931;SDS011;68331;53.362;55.932;2023-04-25T07:16:33;12.23;;;3.72;;
78931;SDS011;68331;53.362;55.932;2023-04-25T07:19:00;7.20;;;2.97;;
78931;SDS011;68331;53.362;55.932;2023-04-25T07:21:26;5.88;;;2.95;;
78931;SDS011;68331;53.362;55.932;2023-04-25T07:23:52;5.18;;;2.78;;
78931;SDS011;68331;53.362;55.932;2023-04-25T07:26:24;2.83;;;2.50;;
78931;SDS011;68331;53.362;55.932;2023-04-25T07:29:15;12.18;;;3.58;;
78931;SDS011;68331;53.362;55.932;2023-04-25T07:31:41;4.80;;;2.97;;
78931;SDS011;68331;53.362;55.932;2023-04-25T07:34:07;5.53;;;2.83;;
78931;SDS011;68331;53.362;55.932;2023-04-25T07:36:34;7.88;;;2.90;;
78931;SDS011;68331;53.362;55.932;2023-04-25T07:39:00;7.75;;;2.72;;
78931;SDS011;68331;53.362;55.932;2023-04-25T07:41:26;4.22;;;2.63;;
78931;SDS011;68331;53.362;55.932;2023-04-25T07:43:52;8.43;;;2.95;;
78931;SDS011;68331;53.362;55.932;2023-04-25T07:46:19;7.85;;;3.20;;
78931;SDS011;68331;53.362;55.932;2023-04-25T07:48:45;12.63;;;2.90;;
78931;SDS011;68331;53.362;55.932;2023-04-25T07:51:11;5.60;;;3.00;;
78931;SDS011;68331;53.362;55.932;2023-04-25T07:53:38;9.25;;;3.33;;
78931;SDS011;68331;53.362;55.932;2023-04-25T07:56:09;3.65;;;2.83;;
78931;SDS011;68331;53.362;55.932;2023-04-25T07:58:38;9.25;;;3.13;;
78931;SDS011;68331;53.362;55.932;2023-04-25T08:01:07;6.10;;;3.00;;
78931;SDS011;68331;53.362;55.932;2023-04-25T08:03:48;5.18;;;2.50;;
78931;SDS011;68331;53.362;55.932;2023-04-25T08:06:20;8.38;;;2.97;;
78931;SDS011;68331;53.362;55.932;2023-04-25T08:08:58;4.97;;;2.60;;
78931;SDS011;68331;53.362;55.932;2023-04-25T08:11:32;5.72;;;2.38;;
78931;SDS011;68331;53.362;55.932;2023-04-25T08:13:58;4.55;;;2.40;;
78931;SDS011;68331;53.362;55.932;2023-04-25T08:16:24;5.35;;;2.58;;
78931;SDS011;68331;53.362;55.932;2023-04-25T08:18:51;3.67;;;2.35;;
78931;SDS011;68331;53.362;55.932;2023-04-25T08:21:17;3.35;;;2.15;;
78931;SDS011;68331;53.362;55.932;2023-04-25T08:23:43;5.20;;;2.65;;
78931;SDS011;68331;53.362;55.932;2023-04-25T08:26:20;5.57;;;3.60;;
78931;SDS011;68331;53.362;55.932;2023-04-25T08:28:48;2.78;;;2.30;;
78931;SDS011;68331;53.362;55.932;2023-04-25T08:31:14;4.70;;;2.72;;
78931;SDS011;68331;53.362;55.932;2023-04-25T08:33:52;4.25;;;2.15;;
78931;SDS011;68331;53.362;55.932;2023-04-25T08:36:33;6.43;;;2.47;;
78931;SDS011;68331;53.362;55.932;2023-04-25T08:38:59;3.00;;;2.47;;
78931;SDS011;68331;53.362;55.932;2023-04-25T08:41:26;8.20;;;2.80;;
78931;SDS011;68331;53.362;55.932;2023-04-25T08:46:18;4.13;;;2.75;;
78931;SDS011;68331;53.362;55.932;2023-04-25T08:49:08;5.60;;;3.10;;
78931;SDS011;68331;53.362;55.932;2023-04-25T08:51:36;6.70;;;2.65;;
78931;SDS011;68331;53.362;55.932;2023-04-25T08:54:10;10.00;;;2.95;;
78931;SDS011;68331;53.362;55.932;2023-04-25T08:56:41;3.92;;;2.20;;
78931;SDS011;68331;53.362;55.932;2023-04-25T08:59:12;2.97;;;2.67;;
78931;SDS011;68331;53.362;55.932;2023-04-25T09:01:40;4.05;;;2.40;;
78931;SDS011;68331;53.362;55.932;2023-04-25T09:04:06;5.43;;;2.22;;
78931;SDS011;68331;53.362;55.932;2023-04-25T09:06:33;6.10;;;2.63;;
78931;SDS011;68331;53.362;55.932;2023-04-25T09:09:05;4.20;;;2.30;;
78931;SDS011;68331;53.362;55.932;2023-04-25T09:11:34;5.82;;;2.55;;
78931;SDS011;68331;53.362;55.932;2023-04-25T09:14:12;5.93;;;2.45;;
78931;SDS011;68331;53.362;55.932;2023-04-25T09:17:05;6.63;;;2.97;;
78931;SDS011;68331;53.362;55.932;2023-04-25T09:19:38;5.13;;;2.40;;
78931;SDS011;68331;53.362;55.932;2023-04-25T09:24:38;3.67;;;2.60;;
78931;SDS011;68331;53.362;55.932;2023-04-25T09:27:08;4.18;;;2.45;;
78931;SDS011;68331;53.362;55.932;2023-04-25T09:29:37;5.88;;;2.28;;
78931;SDS011;68331;53.362;55.932;2023-04-25T09:32:21;18.88;;;3.00;;
78931;SDS011;68331;53.362;55.932;2023-04-25T09:34:51;5.75;;;2.25;;
78931;SDS011;68331;53.362;55.932;2023-04-25T09:37:20;6.32;;;2.47;;
78931;SDS011;68331;53.362;55.932;2023-04-25T09:40:06;3.63;;;2.55;;
78931;SDS011;68331;53.362;55.932;2023-04-25T09:42:41;5.78;;;2.53;;
78931;SDS011;68331;53.362;55.932;2023-04-25T09:45:07;3.42;;;2.20;;
78931;SDS011;68331;53.362;55.932;2023-04-25T09:47:38;3.67;;;2.40;;
78931;SDS011;68331;53.362;55.932;2023-04-25T09:50:14;3.85;;;2.45;;
78931;SDS011;68331;53.362;55.932;2023-04-25T09:52:43;6.78;;;2.60;;
78931;SDS011;68331;53.362;55.932;2023-04-25T09:55:18;8.85;;;2.70;;
78931;SDS011;68331;53.362;55.932;2023-04-25T09:57:45;5.88;;;2.45;;
78931;SDS011;68331;53.362;55.932;2023-04-25T10:00:18;3.38;;;2.28;;
78931;SDS011;68331;53.362;55.932;2023-04-25T10:02:45;5.75;;;2.15;;
78931;SDS011;68331;53.362;55.932;2023-04-25T10:05:36;6.13;;;2.55;;
78931;SDS011;68331;53.362;55.932;2023-04-25T10:08:03;3.95;;;2.70;;
78931;SDS011;68331;53.362;55.932;2023-04-25T10:10:30;5.30;;;2.40;;
78931;SDS011;68331;53.362;55.932;2023-04-25T10:13:03;10.82;;;2.47;;
78931;SDS011;68331;53.362;55.932;2023-04-25T10:15:31;2.65;;;2.42;;
78931;SDS011;68331;53.362;55.932;2023-04-25T10:18:01;5.07;;;2.30;;
78931;SDS011;68331;53.362;55.932;2023-04-25T10:20:28;4.47;;;2.25;;
78931;SDS011;68331;53.362;55.932;2023-04-25T10:22:55;7.43;;;2.58;;
78931;SDS011;68331;53.362;55.932;2023-04-25T10:25:30;2.92;;;2.40;;
78931;SDS011;68331;53.362;55.932;2023-04-25T10:27:56;8.27;;;2.47;;
78931;SDS011;68331;53.362;55.932;2023-04-25T10:30:25;6.63;;;2.50;;
78931;SDS011;68331;53.362;55.932;2023-04-25T10:32:51;5.05;;;2.70;;
78931;SDS011;68331;53.362;55.932;2023-04-25T10:35:24;5.57;;;2.35;;
78931;SDS011;68331;53.362;55.932;2023-04-25T10:40:30;3.80;;;2.10;;
78931;SDS011;68331;53.362;55.932;2023-04-25T10:43:46;3.40;;;2.25;;
78931;SDS011;68331;53.362;55.932;2023-04-25T10:46:24;5.55;;;2.55;;
78931;SDS011;68331;53.362;55.932;2023-04-25T10:48:59;3.42;;;2.35;;
78931;SDS011;68331;53.362;55.932;2023-04-25T10:53:57;5.72;;;2.50;;
78931;SDS011;68331;53.362;55.932;2023-04-25T10:56:31;3.83;;;2.20;;
78931;SDS011;68331;53.362;55.932;2023-04-25T10:59:10;4.47;;;2.30;;
78931;SDS011;68331;53.362;55.932;2023-04-25T11:01:39;7.75;;;2.28;;
78931;SDS011;68331;53.362;55.932;2023-04-25T11:04:18;3.17;;;2.35;;
78931;SDS011;68331;53.362;55.932;2023-04-25T11:09:24;3.65;;;2.38;;
78931;SDS011;68331;53.362;55.932;2023-04-25T11:11:56;4.05;;;2.63;;
78931;SDS011;68331;53.362;55.932;2023-04-25T11:14:24;7.72;;;2.78;;
78931;SDS011;68331;53.362;55.932;2023-04-25T11:16:53;2.92;;;2.20;;
78931;SDS011;68331;53.362;55.932;2023-04-25T11:19:21;3.88;;;2.42;;
78931;SDS011;68331;53.362;55.932;2023-04-25T11:29:09;5.53;;;2.63;;
78931;SDS011;68331;53.362;55.932;2023-04-25T11:31:35;4.80;;;2.58;;
78931;SDS011;68331;53.362;55.932;2023-04-25T11:34:01;3.83;;;2.40;;
78931;SDS011;68331;53.362;55.932;2023-04-25T11:36:28;7.72;;;2.95;;
78931;SDS011;68331;53.362;55.932;2023-04-25T11:38:54;6.45;;;2.67;;
78931;SDS011;68331;53.362;55.932;2023-04-25T11:41:20;5.32;;;2.67;;
78931;SDS011;68331;53.362;55.932;2023-04-25T11:43:48;3.78;;;2.42;;
78931;SDS011;68331;53.362;55.932;2023-04-25T11:46:15;4.53;;;2.40;;
78931;SDS011;68331;53.362;55.932;2023-04-25T11:48:41;3.20;;;2.53;;
78931;SDS011;68331;53.362;55.932;2023-04-25T11:51:08;5.10;;;2.65;;
78931;SDS011;68331;53.362;55.932;2023-04-25T11:53:35;7.15;;;2.60;;
78931;SDS011;68331;53.362;55.932;2023-04-25T11:56:01;4.72;;;2.65;;
78931;SDS011;68331;53.362;55.932;2023-04-25T11:58:53;3.55;;;2.53;;
78931;SDS011;68331;53.362;55.932;2023-04-25T12:03:56;3.45;;;2.72;;
78931;SDS011;68331;53.362;55.932;2023-04-25T12:09:02;3.72;;;2.60;;
78931;SDS011;68331;53.362;55.932;2023-04-25T12:11:40;8.23;;;2.55;;
78931;SDS011;68331;53.362;55.932;2023-04-25T12:14:32;5.10;;;2.50;;
78931;SDS011;68331;53.362;55.932;2023-04-25T12:17:01;3.30;;;2.42;;
78931;SDS011;68331;53.362;55.932;2023-04-25T12:19:33;5.05;;;2.80;;
78931;SDS011;68331;53.362;55.932;2023-04-25T12:22:01;4.68;;;2.40;;
78931;SDS011;68331;53.362;55.932;2023-04-25T12:24:33;5.22;;;2.30;;
78931;SDS011;68331;53.362;55.932;2023-04-25T12:27:03;6.53;;;2.42;;
78931;SDS011;68331;53.362;55.932;2023-04-25T12:29:31;3.45;;;2.88;;
78931;SDS011;68331;53.362;55.932;2023-04-25T12:31:58;2.60;;;2.10;;
78931;SDS011;68331;53.362;55.932;2023-04-25T12:34:25;6.47;;;2.70;;
78931;SDS011;68331;53.362;55.932;2023-04-25T12:36:51;5.47;;;2.50;;
78931;SDS011;68331;53.362;55.932;2023-04-25T12:39:18;13.52;;;2.90;;
78931;SDS011;68331;53.362;55.932;2023-04-25T12:41:48;3.33;;;2.35;;
78931;SDS011;68331;53.362;55.932;2023-04-25T12:44:16;6.60;;;2.58;;
78931;SDS011;68331;53.362;55.932;2023-04-25T12:46:42;6.78;;;2.42;;
78931;SDS011;68331;53.362;55.932;2023-04-25T12:49:09;6.93;;;2.17;;
78931;SDS011;68331;53.362;55.932;2023-04-25T12:51:35;5.68;;;2.70;;
78931;SDS011;68331;53.362;55.932;2023-04-25T12:54:02;6.72;;;2.78;;
78931;SDS011;68331;53.362;55.932;2023-04-25T12:56:30;6.25;;;2.63;;
78931;SDS011;68331;53.362;55.932;2023-04-25T12:58:57;6.13;;;3.28;;
78931;SDS011;68331;53.362;55.932;2023-04-25T13:01:23;4.28;;;2.50;;
78931;SDS011;68331;53.362;55.932;2023-04-25T13:03:50;6.40;;;3.30;;
78931;SDS011;68331;53.362;55.932;2023-04-25T13:06:17;4.55;;;2.75;;
78931;SDS011;68331;53.362;55.932;2023-04-25T13:08:45;3.30;;;2.15;;
78931;SDS011;68331;53.362;55.932;2023-04-25T13:11:11;5.82;;;2.72;;
78931;SDS011;68331;53.362;55.932;2023-04-25T13:13:37;6.93;;;2.90;;
78931;SDS011;68331;53.362;55.932;2023-04-25T13:16:03;4.97;;;2.63;;
78931;SDS011;68331;53.362;55.932;2023-04-25T13:18:30;2.58;;;2.10;;
78931;SDS011;68331;53.362;55.932;2023-04-25T13:20:57;5.25;;;2.42;;
78931;SDS011;68331;53.362;55.932;2023-04-25T13:23:25;7.63;;;2.50;;
78931;SDS011;68331;53.362;55.932;2023-04-25T13:25:53;3.55;;;2.42;;
78931;SDS011;68331;53.362;55.932;2023-04-25T13:28:20;4.95;;;2.20;;
78931;SDS011;68331;53.362;55.932;2023-04-25T13:35:40;3.72;;;2.50;;
78931;SDS011;68331;53.362;55.932;2023-04-25T13:38:07;4.20;;;2.72;;
78931;SDS011;68331;53.362;55.932;2023-04-25T13:40:36;2.65;;;2.35;;
78931;SDS011;68331;53.362;55.932;2023-04-25T13:43:22;3.67;;;2.30;;
78931;SDS011;68331;53.362;55.932;2023-04-25T13:45:48;6.72;;;3.42;;
78931;SDS011;68331;53.362;55.932;2023-04-25T13:48:17;3.05;;;2.35;;
78931;SDS011;68331;53.362;55.932;2023-04-25T13:50:45;3.53;;;2.35;;
78931;SDS011;68331;53.362;55.932;2023-04-25T13:53:11;7.10;;;3.00;;
78931;SDS011;68331;53.362;55.932;2023-04-25T13:55:37;3.10;;;2.75;;
78931;SDS011;68331;53.362;55.932;2023-04-25T13:58:04;8.93;;;2.55;;
78931;SDS011;68331;53.362;55.932;2023-04-25T14:00:38;8.50;;;2.83;;
78931;SDS011;68331;53.362;55.932;2023-04-25T14:03:08;4.72;;;2.55;;
78931;SDS011;68331;53.362;55.932;2023-04-25T14:05:37;6.82;;;2.80;;
78931;SDS011;68331;53.362;55.932;2023-04-25T14:08:08;9.02;;;2.90;;
78931;SDS011;68331;53.362;55.932;2023-04-25T14:15:36;5.78;;;2.38;;
78931;SDS011;68331;53.362;55.932;2023-04-25T14:18:05;5.15;;;2.70;;
78931;SDS011;68331;53.362;55.932;2023-04-25T14:20:31;6.22;;;2.50;;
78931;SDS011;68331;53.362;55.932;2023-04-25T14:22:57;5.93;;;2.75;;
78931;SDS011;68331;53.362;55.932;2023-04-25T14:25:24;5.38;;;2.42;;
78931;SDS011;68331;53.362;55.932;2023-04-25T14:27:50;6.93;;;3.08;;
78931;SDS011;68331;53.362;55.932;2023-04-25T14:30:19;5.63;;;2.80;;
78931;SDS011;68331;53.362;55.932;2023-04-25T14:32:47;4.20;;;2.65;;
78931;SDS011;68331;53.362;55.932;2023-04-25T14:35:15;5.65;;;2.90;;
78931;SDS011;68331;53.362;55.932;2023-04-25T14:37:44;6.78;;;3.08;;
78931;SDS011;68331;53.362;55.932;2023-04-25T14:40:11;3.65;;;2.92;;
78931;SDS011;68331;53.362;55.932;2023-04-25T14:42:47;9.07;;;4.35;;
78931;SDS011;68331;53.362;55.932;2023-04-25T14:45:15;5.47;;;2.85;;
78931;SDS011;68331;53.362;55.932;2023-04-25T14:47:46;6.30;;;3.20;;
78931;SDS011;68331;53.362;55.932;2023-04-25T14:50:12;3.83;;;2.50;;
78931;SDS011;68331;53.362;55.932;2023-04-25T14:53:07;3.60;;;2.60;;
78931;SDS011;68331;53.362;55.932;2023-04-25T14:55:33;4.35;;;2.42;;
78931;SDS011;68331;53.362;55.932;2023-04-25T14:57:59;6.93;;;3.25;;
78931;SDS011;68331;53.362;55.932;2023-04-25T15:00:25;3.42;;;2.75;;
78931;SDS011;68331;53.362;55.932;2023-04-25T15:02:52;6.05;;;2.92;;
78931;SDS011;68331;53.362;55.932;2023-04-25T15:05:18;7.18;;;3.05;;
78931;SDS011;68331;53.362;55.932;2023-04-25T15:07:45;3.97;;;2.65;;
78931;SDS011;68331;53.362;55.932;2023-04-25T15:10:13;6.90;;;3.40;;
78931;SDS011;68331;53.362;55.932;2023-04-25T15:12:50;8.10;;;4.28;;
78931;SDS011;68331;53.362;55.932;2023-04-25T15:15:22;14.45;;;4.15;;
78931;SDS011;68331;53.362;55.932;2023-04-25T15:17:51;11.60;;;3.85;;
78931;SDS011;68331;53.362;55.932;2023-04-25T15:20:18;8.23;;;3.47;;
78931;SDS011;68331;53.362;55.932;2023-04-25T15:22:45;8.13;;;3.58;;
78931;SDS011;68331;53.362;55.932;2023-04-25T15:25:14;7.47;;;2.92;;
78931;SDS011;68331;53.362;55.932;2023-04-25T15:27:46;11.30;;;3.40;;
78931;SDS011;68331;53.362;55.932;2023-04-25T15:30:15;13.48;;;3.33;;
78931;SDS011;68331;53.362;55.932;2023-04-25T15:32:43;8.80;;;3.00;;
78931;SDS011;68331;53.362;55.932;2023-04-25T15:35:12;12.38;;;3.95;;
78931;SDS011;68331;53.362;55.932;2023-04-25T15:37:42;10.05;;;3.35;;